sensor_id;sensor_type;location;lat;lon;timestamp;pressure;altitude;pressure_sealevel;temperature;humidity
60355;BME280;46198;51.464;-0.066;2022-09-03T00:01:03;100803.22;;;18.08;90.83
60355;BME280;46198;51.464;-0.066;2022-09-03T00:03:37;100793.88;;;18.09;88.43
60355;BME280;46198;51.464;-0.066;2022-09-03T00:06:11;100793.59;;;18.05;91.12
60355;BME280;46198;51.464;-0.066;2022-09-03T00:08:45;100788.66;;;18.02;90.22
60355;BME280;46198;51.464;-0.066;2022-09-03T00:11:19;100781.50;;;18.01;88.71
60355;BME280;46198;51.464;-0.066;2022-09-03T00:13:53;100781.78;;;18.00;87.98
60355;BME280;46198;51.464;-0.066;2022-09-03T00:16:28;100784.19;;;17.91;91.74
60355;BME280;46198;51.464;-0.066;2022-09-03T00:19:00;100781.19;;;17.92;90.32
60355;BME280;46198;51.464;-0.066;2022-09-03T00:21:36;100780.63;;;17.90;88.98
60355;BME280;46198;51.464;-0.066;2022-09-03T00:24:09;100780.91;;;17.84;90.58
60355;BME280;46198;51.464;-0.066;2022-09-03T00:26:44;100775.38;;;17.79;91.93
60355;BME280;46198;51.464;-0.066;2022-09-03T00:29:15;100774.78;;;17.77;92.86
60355;BME280;46198;51.464;-0.066;2022-09-03T00:31:48;100761.03;;;17.71;93.19
60355;BME280;46198;51.464;-0.066;2022-09-03T00:34:21;100763.22;;;17.69;90.95
60355;BME280;46198;51.464;-0.066;2022-09-03T00:36:51;100767.34;;;17.67;90.39
60355;BME280;46198;51.464;-0.066;2022-09-03T00:39:24;100767.06;;;17.63;89.56
60355;BME280;46198;51.464;-0.066;2022-09-03T00:42:18;100761.53;;;17.58;91.49
60355;BME280;46198;51.464;-0.066;2022-09-03T00:45:08;100765.94;;;17.54;92.32
60355;BME280;46198;51.464;-0.066;2022-09-03T00:47:47;100766.69;;;17.44;95.34
60355;BME280;46198;51.464;-0.066;2022-09-03T00:50:22;100763.94;;;17.44;92.09
60355;BME280;46198;51.464;-0.066;2022-09-03T00:53:01;100762.03;;;17.40;96.25
60355;BME280;46198;51.464;-0.066;2022-09-03T00:55:41;100763.09;;;17.39;91.90
60355;BME280;46198;51.464;-0.066;2022-09-03T00:58:31;100763.88;;;17.29;92.98
60355;BME280;46198;51.464;-0.066;2022-09-03T01:01:08;100771.56;;;17.27;92.55
60355;BME280;46198;51.464;-0.066;2022-09-03T01:03:42;100770.72;;;17.21;94.10
60355;BME280;46198;51.464;-0.066;2022-09-03T01:06:18;100767.66;;;17.18;94.55
60355;BME280;46198;51.464;-0.066;2022-09-03T01:08:59;100759.69;;;17.16;92.00
60355;BME280;46198;51.464;-0.066;2022-09-03T01:11:37;100753.94;;;17.13;93.06
60355;BME280;46198;51.464;-0.066;2022-09-03T01:14:18;100741.00;;;17.08;93.84
60355;BME280;46198;51.464;-0.066;2022-09-03T01:16:53;100749.44;;;17.01;97.23
60355;BME280;46198;51.464;-0.066;2022-09-03T01:19:41;100743.94;;;17.01;94.38
60355;BME280;46198;51.464;-0.066;2022-09-03T01:22:28;100739.81;;;16.99;96.51
60355;BME280;46198;51.464;-0.066;2022-09-03T01:25:14;100748.06;;;16.99;97.23
60355;BME280;46198;51.464;-0.066;2022-09-03T01:27:59;100748.03;;;16.94;96.59
60355;BME280;46198;51.464;-0.066;2022-09-03T01:30:30;100743.91;;;16.96;95.24
60355;BME280;46198;51.464;-0.066;2022-09-03T01:33:04;100742.00;;;16.92;97.25
60355;BME280;46198;51.464;-0.066;2022-09-03T01:35:42;100737.84;;;16.89;98.76
60355;BME280;46198;51.464;-0.066;2022-09-03T01:38:18;100739.50;;;16.90;97.11
60355;BME280;46198;51.464;-0.066;2022-09-03T01:40:56;100740.84;;;16.88;100.00
60355;BME280;46198;51.464;-0.066;2022-09-03T01:43:56;100746.34;;;16.88;100.00
60355;BME280;46198;51.464;-0.066;2022-09-03T01:46:33;100748.28;;;16.92;95.75
60355;BME280;46198;51.464;-0.066;2022-09-03T01:49:11;100740.84;;;16.88;100.00
60355;BME280;46198;51.464;-0.066;2022-09-03T01:51:41;100745.81;;;16.91;100.00
60355;BME280;46198;51.464;-0.066;2022-09-03T01:54:36;100743.63;;;16.93;97.57
60355;BME280;46198;51.464;-0.066;2022-09-03T01:57:17;100740.94;;;16.98;95.41
60355;BME280;46198;51.464;-0.066;2022-09-03T02:00:06;100745.31;;;16.94;98.44
60355;BME280;46198;51.464;-0.066;2022-09-03T02:02:39;100737.63;;;16.96;98.78
60355;BME280;46198;51.464;-0.066;2022-09-03T02:05:11;100737.34;;;16.97;98.39
60355;BME280;46198;51.464;-0.066;2022-09-03T02:07:42;100751.38;;;17.01;99.02
60355;BME280;46198;51.464;-0.066;2022-09-03T02:10:12;100749.19;;;17.03;96.11
60355;BME280;46198;51.464;-0.066;2022-09-03T02:12:44;100747.25;;;17.03;100.00
60355;BME280;46198;51.464;-0.066;2022-09-03T02:15:17;100741.53;;;17.05;95.08
60355;BME280;46198;51.464;-0.066;2022-09-03T02:17:47;100740.44;;;17.06;95.64
60355;BME280;46198;51.464;-0.066;2022-09-03T02:20:18;100742.06;;;17.07;95.08
60355;BME280;46198;51.464;-0.066;2022-09-03T02:22:47;100747.00;;;17.05;100.00
60355;BME280;46198;51.464;-0.066;2022-09-03T02:25:16;100754.72;;;17.08;97.63
60355;BME280;46198;51.464;-0.066;2022-09-03T02:27:45;100747.84;;;17.05;100.00
60355;BME280;46198;51.464;-0.066;2022-09-03T02:30:16;100750.28;;;17.02;100.00
60355;BME280;46198;51.464;-0.066;2022-09-03T02:32:44;100746.69;;;17.01;100.00
60355;BME280;46198;51.464;-0.066;2022-09-03T02:35:13;100751.38;;;17.01;98.39
60355;BME280;46198;51.464;-0.066;2022-09-03T02:37:41;100757.38;;;16.98;100.00
60355;BME280;46198;51.464;-0.066;2022-09-03T02:40:09;100759.56;;;16.96;99.01
60355;BME280;46198;51.464;-0.066;2022-09-03T02:42:37;100766.91;;;16.90;100.00
60355;BME280;46198;51.464;-0.066;2022-09-03T02:45:12;100760.38;;;16.91;98.60
60355;BME280;46198;51.464;-0.066;2022-09-03T02:47:46;100762.53;;;16.89;95.96
60355;BME280;46198;51.464;-0.066;2022-09-03T02:50:17;100766.06;;;16.84;99.62
60355;BME280;46198;51.464;-0.066;2022-09-03T02:52:45;100759.19;;;16.82;98.98
60355;BME280;46198;51.464;-0.066;2022-09-03T02:55:13;100766.59;;;16.81;97.54
60355;BME280;46198;51.464;-0.066;2022-09-03T02:57:41;100765.47;;;16.77;99.22
60355;BME280;46198;51.464;-0.066;2022-09-03T03:00:11;100763.78;;;16.76;100.00
60355;BME280;46198;51.464;-0.066;2022-09-03T03:02:39;100768.69;;;16.74;100.00
60355;BME280;46198;51.464;-0.066;2022-09-03T03:05:17;100770.97;;;16.77;98.45
60355;BME280;46198;51.464;-0.066;2022-09-03T03:07:48;100769.88;;;16.78;100.00
60355;BME280;46198;51.464;-0.066;2022-09-03T03:10:16;100775.34;;;16.78;100.00
60355;BME280;46198;51.464;-0.066;2022-09-03T03:12:44;100772.06;;;16.81;100.00
60355;BME280;46198;51.464;-0.066;2022-09-03T03:15:12;100773.72;;;16.82;100.00
60355;BME280;46198;51.464;-0.066;2022-09-03T03:17:41;100769.63;;;16.85;99.37
60355;BME280;46198;51.464;-0.066;2022-09-03T03:20:10;100774.88;;;16.87;100.00
60355;BME280;46198;51.464;-0.066;2022-09-03T03:22:38;100764.47;;;16.89;99.65
60355;BME280;46198;51.464;-0.066;2022-09-03T03:25:07;100758.97;;;16.89;100.00
60355;BME280;46198;51.464;-0.066;2022-09-03T03:27:36;100763.94;;;16.92;100.00
60355;BME280;46198;51.464;-0.066;2022-09-03T03:30:06;100767.25;;;16.94;100.00
60355;BME280;46198;51.464;-0.066;2022-09-03T03:32:36;100764.00;;;17.02;100.00
60355;BME280;46198;51.464;-0.066;2022-09-03T03:35:05;100751.13;;;17.02;100.00
60355;BME280;46198;51.464;-0.066;2022-09-03T03:37:35;100755.50;;;17.03;100.00
60355;BME280;46198;51.464;-0.066;2022-09-03T03:40:03;100743.44;;;17.04;100.00
60355;BME280;46198;51.464;-0.066;2022-09-03T03:42:32;100756.88;;;17.06;100.00
60355;BME280;46198;51.464;-0.066;2022-09-03T03:45:00;100750.28;;;17.07;100.00
60355;BME280;46198;51.464;-0.066;2022-09-03T03:47:29;100749.47;;;17.06;100.00
60355;BME280;46198;51.464;-0.066;2022-09-03T03:49:57;100734.97;;;17.11;100.00
60355;BME280;46198;51.464;-0.066;2022-09-03T03:52:26;100736.06;;;17.15;100.00
60355;BME280;46198;51.464;-0.066;2022-09-03T03:54:55;100739.94;;;17.19;100.00
60355;BME280;46198;51.464;-0.066;2022-09-03T03:57:23;100735.81;;;17.17;100.00
60355;BME280;46198;51.464;-0.066;2022-09-03T03:59:52;100737.47;;;17.18;100.00
60355;BME280;46198;51.464;-0.066;2022-09-03T04:02:20;100733.06;;;17.17;100.00
60355;BME280;46198;51.464;-0.066;2022-09-03T04:04:48;100732.28;;;17.21;100.00
60355;BME280;46198;51.464;-0.066;2022-09-03T04:07:16;100737.78;;;17.21;100.00
60355;BME280;46198;51.464;-0.066;2022-09-03T04:09:44;100735.03;;;17.21;100.00
60355;BME280;46198;51.464;-0.066;2022-09-03T04:12:14;100735.03;;;17.21;100.00
60355;BME280;46198;51.464;-0.066;2022-09-03T04:14:42;100731.47;;;17.26;100.00
60355;BME280;46198;51.464;-0.066;2022-09-03T04:17:10;100730.13;;;17.28;100.00
60355;BME280;46198;51.464;-0.066;2022-09-03T04:19:38;100730.41;;;17.27;100.00
60355;BME280;46198;51.464;-0.066;2022-09-03T04:22:06;100732.59;;;17.30;100.00
60355;BME280;46198;51.464;-0.066;2022-09-03T04:24:34;100734.25;;;17.31;100.00
60355;BME280;46198;51.464;-0.066;2022-09-03T04:27:02;100736.16;;;17.31;100.00
60355;BME280;46198;51.464;-0.066;2022-09-03T04:29:32;100733.97;;;17.27;100.00
60355;BME280;46198;51.464;-0.066;2022-09-03T04:32:01;100738.91;;;17.31;100.00
60355;BME280;46198;51.464;-0.066;2022-09-03T04:34:46;100736.44;;;17.29;100.00
60355;BME280;46198;51.464;-0.066;2022-09-03T04:37:14;100731.25;;;17.33;100.00
60355;BME280;46198;51.464;-0.066;2022-09-03T04:39:45;100732.34;;;17.37;100.00
60355;BME280;46198;51.464;-0.066;2022-09-03T04:42:13;100728.75;;;17.31;100.00
60355;BME280;46198;51.464;-0.066;2022-09-03T04:44:42;100717.75;;;17.26;100.00
60355;BME280;46198;51.464;-0.066;2022-09-03T04:47:10;100723.53;;;17.24;100.00
60355;BME280;46198;51.464;-0.066;2022-09-03T04:49:38;100713.94;;;17.27;100.00
60355;BME280;46198;51.464;-0.066;2022-09-03T04:52:06;100702.66;;;17.28;100.00
60355;BME280;46198;51.464;-0.066;2022-09-03T04:54:35;100705.41;;;17.28;100.00
60355;BME280;46198;51.464;-0.066;2022-09-03T04:57:03;100716.13;;;17.30;100.00
60355;BME280;46198;51.464;-0.066;2022-09-03T04:59:31;100722.44;;;17.31;100.00
60355;BME280;46198;51.464;-0.066;2022-09-03T05:02:01;100727.94;;;17.31;100.00
60355;BME280;46198;51.464;-0.066;2022-09-03T05:04:29;100731.25;;;17.33;100.00
60355;BME280;46198;51.464;-0.066;2022-09-03T05:06:57;100732.06;;;17.33;100.00
60355;BME280;46198;51.464;-0.066;2022-09-03T05:09:25;100736.69;;;17.27;100.00
60355;BME280;46198;51.464;-0.066;2022-09-03T05:11:53;100734.22;;;17.26;100.00
60355;BME280;46198;51.464;-0.066;2022-09-03T05:14:21;100729.53;;;17.21;100.00
60355;BME280;46198;51.464;-0.066;2022-09-03T05:16:49;100733.34;;;17.20;100.00
60355;BME280;46198;51.464;-0.066;2022-09-03T05:19:20;100733.34;;;17.20;100.00
60355;BME280;46198;51.464;-0.066;2022-09-03T05:21:48;100741.56;;;17.15;100.00
60355;BME280;46198;51.464;-0.066;2022-09-03T05:24:16;100742.66;;;17.14;100.00
60355;BME280;46198;51.464;-0.066;2022-09-03T05:26:44;100737.47;;;17.13;100.00
60355;BME280;46198;51.464;-0.066;2022-09-03T05:29:12;100739.06;;;17.09;100.00
60355;BME280;46198;51.464;-0.066;2022-09-03T05:31:41;100734.38;;;17.04;100.00
60355;BME280;46198;51.464;-0.066;2022-09-03T05:34:10;100734.91;;;17.01;100.00
60355;BME280;46198;51.464;-0.066;2022-09-03T05:36:45;100736.56;;;17.02;100.00
60355;BME280;46198;51.464;-0.066;2022-09-03T05:39:15;100738.22;;;17.03;100.00
60355;BME280;46198;51.464;-0.066;2022-09-03T05:41:43;100734.09;;;17.00;100.00
60355;BME280;46198;51.464;-0.066;2022-09-03T05:44:11;100736.00;;;17.00;100.00
60355;BME280;46198;51.464;-0.066;2022-09-03T05:46:40;100736.53;;;16.97;100.00
60355;BME280;46198;51.464;-0.066;2022-09-03T05:49:08;100738.19;;;16.98;100.00
60355;BME280;46198;51.464;-0.066;2022-09-03T05:51:37;100740.38;;;17.01;100.00
60355;BME280;46198;51.464;-0.066;2022-09-03T05:54:07;100737.63;;;16.96;100.00
60355;BME280;46198;51.464;-0.066;2022-09-03T05:56:37;100740.59;;;16.89;100.00
60355;BME280;46198;51.464;-0.066;2022-09-03T05:59:08;100735.38;;;16.88;100.00
60355;BME280;46198;51.464;-0.066;2022-09-03T06:01:38;100740.84;;;16.88;100.00
60355;BME280;46198;51.464;-0.066;2022-09-03T06:04:12;100739.22;;;16.87;100.00
60355;BME280;46198;51.464;-0.066;2022-09-03T06:06:42;100734.81;;;16.86;100.00
60355;BME280;46198;51.464;-0.066;2022-09-03T06:09:14;100735.91;;;16.84;100.00
60355;BME280;46198;51.464;-0.066;2022-09-03T06:11:44;100745.22;;;16.83;100.00
60355;BME280;46198;51.464;-0.066;2022-09-03T06:14:13;100735.31;;;16.82;100.00
60355;BME280;46198;51.464;-0.066;2022-09-03T06:16:43;100737.25;;;16.82;100.00
60355;BME280;46198;51.464;-0.066;2022-09-03T06:19:11;100742.47;;;16.83;100.00
60355;BME280;46198;51.464;-0.066;2022-09-03T06:21:41;100752.34;;;16.84;100.00
60355;BME280;46198;51.464;-0.066;2022-09-03T06:24:11;100751.28;;;16.91;100.00
60355;BME280;46198;51.464;-0.066;2022-09-03T06:26:42;100753.25;;;16.95;100.00
60355;BME280;46198;51.464;-0.066;2022-09-03T06:29:11;100751.38;;;17.01;100.00
60355;BME280;46198;51.464;-0.066;2022-09-03T06:31:39;100759.34;;;17.02;100.00
60355;BME280;46198;51.464;-0.066;2022-09-03T06:34:07;100759.34;;;17.02;100.00
60355;BME280;46198;51.464;-0.066;2022-09-03T06:36:38;100759.06;;;17.04;100.00
60355;BME280;46198;51.464;-0.066;2022-09-03T06:39:06;100760.97;;;17.03;100.00
60355;BME280;46198;51.464;-0.066;2022-09-03T06:41:34;100751.44;;;17.11;100.00
60355;BME280;46198;51.464;-0.066;2022-09-03T06:44:05;100753.34;;;17.11;100.00
60355;BME280;46198;51.464;-0.066;2022-09-03T06:46:39;100757.50;;;17.13;100.00
60355;BME280;46198;51.464;-0.066;2022-09-03T06:49:08;100752.03;;;17.18;100.00
60355;BME280;46198;51.464;-0.066;2022-09-03T06:51:37;100750.97;;;17.24;100.00
60355;BME280;46198;51.464;-0.066;2022-09-03T06:54:07;100750.47;;;17.38;100.00
60355;BME280;46198;51.464;-0.066;2022-09-03T06:56:38;100761.00;;;17.56;100.00
60355;BME280;46198;51.464;-0.066;2022-09-03T06:59:08;100753.91;;;17.70;100.00
60355;BME280;46198;51.464;-0.066;2022-09-03T07:01:37;100764.13;;;17.85;100.00
60355;BME280;46198;51.464;-0.066;2022-09-03T07:04:11;100759.25;;;18.03;100.00
60355;BME280;46198;51.464;-0.066;2022-09-03T07:06:41;100754.06;;;18.27;100.00
60355;BME280;46198;51.464;-0.066;2022-09-03T07:09:11;100764.25;;;18.42;100.00
60355;BME280;46198;51.464;-0.066;2022-09-03T07:11:40;100762.59;;;18.61;100.00
60355;BME280;46198;51.464;-0.066;2022-09-03T07:14:16;100769.22;;;18.75;100.00
60355;BME280;46198;51.464;-0.066;2022-09-03T07:16:46;100772.53;;;18.88;100.00
60355;BME280;46198;51.464;-0.066;2022-09-03T07:19:14;100766.72;;;19.04;99.87
60355;BME280;46198;51.464;-0.066;2022-09-03T07:21:43;100763.94;;;19.20;100.00
60355;BME280;46198;51.464;-0.066;2022-09-03T07:24:17;100773.25;;;19.29;100.00
60355;BME280;46198;51.464;-0.066;2022-09-03T07:26:45;100765.53;;;19.41;99.43
60355;BME280;46198;51.464;-0.066;2022-09-03T07:29:16;100784.19;;;19.60;95.16
60355;BME280;46198;51.464;-0.066;2022-09-03T07:31:50;100777.00;;;19.69;95.58
60355;BME280;46198;51.464;-0.066;2022-09-03T07:34:20;100780.53;;;19.80;93.17
60355;BME280;46198;51.464;-0.066;2022-09-03T07:36:51;100771.66;;;19.93;91.19
60355;BME280;46198;51.464;-0.066;2022-09-03T07:39:20;100775.44;;;20.07;92.12
60355;BME280;46198;51.464;-0.066;2022-09-03T07:41:48;100778.19;;;20.07;90.60
60355;BME280;46198;51.464;-0.066;2022-09-03T07:44:18;100773.63;;;20.32;94.72
60355;BME280;46198;51.464;-0.066;2022-09-03T07:46:46;100779.47;;;20.25;92.21
60355;BME280;46198;51.464;-0.066;2022-09-03T07:49:17;100773.16;;;20.20;89.22
60355;BME280;46198;51.464;-0.066;2022-09-03T07:51:46;100774.56;;;20.56;91.75
60355;BME280;46198;51.464;-0.066;2022-09-03T07:54:16;100771.81;;;20.51;81.13
60355;BME280;46198;51.464;-0.066;2022-09-03T07:56:46;100775.72;;;20.85;83.52
60355;BME280;46198;51.464;-0.066;2022-09-03T07:59:14;100771.97;;;20.70;80.60
60355;BME280;46198;51.464;-0.066;2022-09-03T08:01:43;100770.19;;;20.85;79.69
60355;BME280;46198;51.464;-0.066;2022-09-03T08:04:11;100777.69;;;20.79;76.27
60355;BME280;46198;51.464;-0.066;2022-09-03T08:06:39;100773.25;;;20.83;79.13
60355;BME280;46198;51.464;-0.066;2022-09-03T08:09:09;100776.13;;;20.97;80.58
60355;BME280;46198;51.464;-0.066;2022-09-03T08:11:41;100785.28;;;20.92;79.03
60355;BME280;46198;51.464;-0.066;2022-09-03T08:14:11;100783.06;;;20.94;77.55
60355;BME280;46198;51.464;-0.066;2022-09-03T08:16:43;100784.78;;;21.14;76.81
60355;BME280;46198;51.464;-0.066;2022-09-03T08:19:13;100793.06;;;21.14;74.88
60355;BME280;46198;51.464;-0.066;2022-09-03T08:21:43;100793.81;;;20.96;74.60
60355;BME280;46198;51.464;-0.066;2022-09-03T08:24:14;100795.59;;;21.11;74.92
60355;BME280;46198;51.464;-0.066;2022-09-03T08:26:42;100794.91;;;21.24;75.33
60355;BME280;46198;51.464;-0.066;2022-09-03T08:29:18;100810.09;;;21.27;75.45
60355;BME280;46198;51.464;-0.066;2022-09-03T08:31:47;100800.97;;;21.55;73.45
60355;BME280;46198;51.464;-0.066;2022-09-03T08:34:16;100802.72;;;21.46;73.35
60355;BME280;46198;51.464;-0.066;2022-09-03T08:36:45;100810.94;;;21.51;72.84
60355;BME280;46198;51.464;-0.066;2022-09-03T08:39:13;100808.22;;;21.94;73.30
60355;BME280;46198;51.464;-0.066;2022-09-03T08:41:56;100804.44;;;21.85;74.14
60355;BME280;46198;51.464;-0.066;2022-09-03T08:44:29;100806.84;;;22.34;69.89
60355;BME280;46198;51.464;-0.066;2022-09-03T08:47:04;100805.03;;;22.44;70.74
60355;BME280;46198;51.464;-0.066;2022-09-03T08:49:40;100797.63;;;22.39;70.72
60355;BME280;46198;51.464;-0.066;2022-09-03T08:52:22;100806.28;;;22.13;73.59
60355;BME280;46198;51.464;-0.066;2022-09-03T08:54:58;100799.38;;;22.35;68.79
60355;BME280;46198;51.464;-0.066;2022-09-03T08:57:31;100799.53;;;22.01;70.37
60355;BME280;46198;51.464;-0.066;2022-09-03T09:00:05;100806.78;;;22.21;69.31
60355;BME280;46198;51.464;-0.066;2022-09-03T09:02:46;100809.53;;;22.59;67.57
60355;BME280;46198;51.464;-0.066;2022-09-03T09:05:22;100803.38;;;22.62;66.91
60355;BME280;46198;51.464;-0.066;2022-09-03T09:07:58;100806.41;;;22.79;68.93
60355;BME280;46198;51.464;-0.066;2022-09-03T09:10:35;100798.72;;;23.09;68.63
60355;BME280;46198;51.464;-0.066;2022-09-03T09:13:13;100803.38;;;22.94;66.91
60355;BME280;46198;51.464;-0.066;2022-09-03T09:15:50;100801.19;;;22.96;66.19
60355;BME280;46198;51.464;-0.066;2022-09-03T09:18:37;100791.13;;;23.14;66.27
60355;BME280;46198;51.464;-0.066;2022-09-03T09:21:08;100791.78;;;23.39;66.06
60355;BME280;46198;51.464;-0.066;2022-09-03T09:23:47;100798.47;;;23.52;65.26
60355;BME280;46198;51.464;-0.066;2022-09-03T09:26:17;100804.44;;;23.59;62.86
60355;BME280;46198;51.464;-0.066;2022-09-03T09:28:53;100799.78;;;23.68;62.58
60355;BME280;46198;51.464;-0.066;2022-09-03T09:31:23;100795.69;;;23.65;63.19
60355;BME280;46198;51.464;-0.066;2022-09-03T09:33:54;100803.56;;;23.31;63.78
60355;BME280;46198;51.464;-0.066;2022-09-03T09:36:22;100813.56;;;23.87;65.10
60355;BME280;46198;51.464;-0.066;2022-09-03T09:38:51;100807.38;;;24.04;61.51
60355;BME280;46198;51.464;-0.066;2022-09-03T09:41:20;100803.69;;;23.95;64.24
60355;BME280;46198;51.464;-0.066;2022-09-03T09:43:59;100799.19;;;23.85;62.74
60355;BME280;46198;51.464;-0.066;2022-09-03T09:46:33;100802.03;;;23.94;62.01
60355;BME280;46198;51.464;-0.066;2022-09-03T09:49:21;100800.19;;;24.03;61.39
60355;BME280;46198;51.464;-0.066;2022-09-03T09:52:00;100805.94;;;24.06;61.03
60355;BME280;46198;51.464;-0.066;2022-09-03T09:54:29;100807.84;;;23.83;60.60
60355;BME280;46198;51.464;-0.066;2022-09-03T09:56:59;100809.66;;;23.74;61.97
60355;BME280;46198;51.464;-0.066;2022-09-03T09:59:28;100812.41;;;23.47;61.37
60355;BME280;46198;51.464;-0.066;2022-09-03T10:02:08;100809.66;;;23.74;60.77
60355;BME280;46198;51.464;-0.066;2022-09-03T10:04:49;100813.38;;;23.83;63.27
60355;BME280;46198;51.464;-0.066;2022-09-03T10:07:25;100808.28;;;24.13;61.11
60355;BME280;46198;51.464;-0.066;2022-09-03T10:09:58;100805.34;;;23.82;57.72
60355;BME280;46198;51.464;-0.066;2022-09-03T10:12:31;100802.78;;;23.85;58.53
60355;BME280;46198;51.464;-0.066;2022-09-03T10:15:11;100805.78;;;23.75;61.41
60355;BME280;46198;51.464;-0.066;2022-09-03T10:17:52;100801.88;;;23.76;57.91
60355;BME280;46198;51.464;-0.066;2022-09-03T10:20:30;100799.63;;;23.78;59.84
60355;BME280;46198;51.464;-0.066;2022-09-03T10:23:09;100797.84;;;23.68;61.09
60355;BME280;46198;51.464;-0.066;2022-09-03T10:25:43;100801.66;;;23.86;61.21
60355;BME280;46198;51.464;-0.066;2022-09-03T10:28:20;100794.25;;;23.68;60.68
60355;BME280;46198;51.464;-0.066;2022-09-03T10:30:59;100801.22;;;23.65;59.68
60355;BME280;46198;51.464;-0.066;2022-09-03T10:33:33;100801.66;;;23.86;59.33
60355;BME280;46198;51.464;-0.066;2022-09-03T10:36:11;100794.44;;;23.99;58.93
60355;BME280;46198;51.464;-0.066;2022-09-03T10:38:47;100803.44;;;24.19;58.56
60355;BME280;46198;51.464;-0.066;2022-09-03T10:41:27;100803.88;;;24.12;57.11
60355;BME280;46198;51.464;-0.066;2022-09-03T10:44:06;100783.22;;;24.41;57.54
60355;BME280;46198;51.464;-0.066;2022-09-03T10:46:44;100790.97;;;24.44;57.68
60355;BME280;46198;51.464;-0.066;2022-09-03T10:49:33;100798.50;;;24.16;56.23
60355;BME280;46198;51.464;-0.066;2022-09-03T10:52:09;100794.56;;;24.30;57.22
60355;BME280;46198;51.464;-0.066;2022-09-03T10:54:52;100799.41;;;24.25;56.49
60355;BME280;46198;51.464;-0.066;2022-09-03T10:57:33;100803.13;;;24.20;56.65
60355;BME280;46198;51.464;-0.066;2022-09-03T11:00:09;100792.03;;;24.20;57.32
60355;BME280;46198;51.464;-0.066;2022-09-03T11:05:42;100802.03;;;23.94;57.45
60355;BME280;46198;51.464;-0.066;2022-09-03T11:08:20;100798.53;;;24.02;57.78
60355;BME280;46198;51.464;-0.066;2022-09-03T11:10:54;100801.81;;;24.04;57.63
60355;BME280;46198;51.464;-0.066;2022-09-03T11:13:26;100791.91;;;24.25;57.48
60355;BME280;46198;51.464;-0.066;2022-09-03T11:15:59;100783.50;;;24.53;56.51
60355;BME280;46198;51.464;-0.066;2022-09-03T11:18:31;100786.91;;;24.50;55.99
60355;BME280;46198;51.464;-0.066;2022-09-03T11:21:04;100789.69;;;24.72;55.99
60355;BME280;46198;51.464;-0.066;2022-09-03T11:23:42;100784.84;;;25.09;54.49
60355;BME280;46198;51.464;-0.066;2022-09-03T11:26:14;100794.81;;;25.10;54.43
60355;BME280;46198;51.464;-0.066;2022-09-03T11:28:53;100775.25;;;25.15;53.02
60355;BME280;46198;51.464;-0.066;2022-09-03T11:31:31;100781.91;;;25.37;53.68
60355;BME280;46198;51.464;-0.066;2022-09-03T11:34:05;100782.97;;;25.58;52.84
60355;BME280;46198;51.464;-0.066;2022-09-03T11:36:35;100785.31;;;25.74;52.81
60355;BME280;46198;51.464;-0.066;2022-09-03T11:39:18;100778.75;;;25.78;51.20
60355;BME280;46198;51.464;-0.066;2022-09-03T11:41:58;100778.31;;;25.85;50.56
60355;BME280;46198;51.464;-0.066;2022-09-03T11:44:36;100772.66;;;25.68;50.41
60355;BME280;46198;51.464;-0.066;2022-09-03T11:47:21;100777.22;;;25.55;50.96
60355;BME280;46198;51.464;-0.066;2022-09-03T11:49:51;100775.72;;;25.49;50.63
60355;BME280;46198;51.464;-0.066;2022-09-03T11:52:26;100776.88;;;25.48;49.78
60355;BME280;46198;51.464;-0.066;2022-09-03T11:54:56;100781.00;;;25.59;50.41
60355;BME280;46198;51.464;-0.066;2022-09-03T11:57:28;100777.16;;;25.37;51.08
60355;BME280;46198;51.464;-0.066;2022-09-03T12:00:07;100776.88;;;25.56;52.44
60355;BME280;46198;51.464;-0.066;2022-09-03T12:02:43;100776.09;;;25.64;52.03
60355;BME280;46198;51.464;-0.066;2022-09-03T12:05:21;100773.00;;;25.57;52.00
60355;BME280;46198;51.464;-0.066;2022-09-03T12:08:22;100767.22;;;25.45;51.38
60355;BME280;46198;51.464;-0.066;2022-09-03T12:11:06;100765.56;;;25.35;51.43
60355;BME280;46198;51.464;-0.066;2022-09-03T12:13:49;100767.34;;;25.40;51.27
60355;BME280;46198;51.464;-0.066;2022-09-03T12:19:12;100776.06;;;25.16;51.36
60355;BME280;46198;51.464;-0.066;2022-09-03T12:21:48;100775.16;;;24.98;51.79
60355;BME280;46198;51.464;-0.066;2022-09-03T12:24:17;100780.56;;;25.03;52.75
60355;BME280;46198;51.464;-0.066;2022-09-03T12:26:47;100789.16;;;25.15;53.02
60355;BME280;46198;51.464;-0.066;2022-09-03T12:29:23;100786.41;;;25.24;51.50
60355;BME280;46198;51.464;-0.066;2022-09-03T12:31:54;100780.53;;;25.26;52.00
60355;BME280;46198;51.464;-0.066;2022-09-03T12:34:23;100780.00;;;25.15;52.47
60355;BME280;46198;51.464;-0.066;2022-09-03T12:36:53;100774.50;;;25.32;53.07
60355;BME280;46198;51.464;-0.066;2022-09-03T12:39:22;100780.13;;;25.41;52.12
60355;BME280;46198;51.464;-0.066;2022-09-03T12:42:16;100783.63;;;25.24;52.44
60355;BME280;46198;51.464;-0.066;2022-09-03T12:44:46;100790.69;;;25.22;51.45
60355;BME280;46198;51.464;-0.066;2022-09-03T12:47:17;100785.81;;;25.36;52.40
60355;BME280;46198;51.464;-0.066;2022-09-03T12:50:06;100790.75;;;25.39;53.18
60355;BME280;46198;51.464;-0.066;2022-09-03T12:52:39;100786.47;;;25.33;52.65
60355;BME280;46198;51.464;-0.066;2022-09-03T12:55:17;100790.03;;;25.25;51.84
60355;BME280;46198;51.464;-0.066;2022-09-03T12:57:52;100790.16;;;24.97;51.38
60355;BME280;46198;51.464;-0.066;2022-09-03T13:00:29;100792.75;;;24.93;53.08
60355;BME280;46198;51.464;-0.066;2022-09-03T13:03:02;100792.47;;;24.95;52.62
60355;BME280;46198;51.464;-0.066;2022-09-03T13:05:34;100797.88;;;25.00;52.82
60355;BME280;46198;51.464;-0.066;2022-09-03T13:08:04;100796.75;;;25.01;52.45
60355;BME280;46198;51.464;-0.066;2022-09-03T13:10:36;100797.25;;;25.03;52.26